Hanjin Malta — V7AQ7 — position and weather

sailwx.info

Track history (hours):
 
Tides and Currents Weather Stations Pressure Air Temp Water Temp Dewpoint Dewpoint Depression Visibility Wind Speed Wind Dir Waves Ship Positions

Hanjin Malta

Last reported at 2018-Jul-05 13:29 UTC. Time now 2018-Jul-23 09:53 UTC.
Position N 38°39' E 118°24'.
Warning: this ship's position is 17 days out of date.

Length 290 m; draft 7 m.

Type: Cargo ship. MMSI: 538005050.

Date/timePositionNaut miles runAvg speedWind from/ knotsBaromVisibWave heightAir tempDewpointWater temp
2018-Jul-05 13:29N 38°39' E 118°24'0 0.1
2018-Jul-05 12:53N 38°39' E 118°24'0 0.0
2018-Jul-05 12:20N 38°39' E 118°24'0 0.0
2018-Jul-05 11:59N 38°39' E 118°24'0 0.0
2018-Jul-04 09:49N 38°39' E 118°24'0 0.0
2018-Jul-04 09:19N 38°39' E 118°24'0 0.0
2018-Jul-04 08:46N 38°39' E 118°24'0 0.0
2018-Jul-04 07:34N 38°39' E 118°24'  
2018-Jun-30 10:28N 38°60' E 118°27'0 0.0
2018-Jun-30 09:58N 38°60' E 118°27'0 0.0
2018-Jun-30 08:49N 38°60' E 118°27'0 0.0
2018-Jun-30 08:16N 38°60' E 118°27'0 0.0
2018-Jun-30 07:58N 38°60' E 118°27'0 0.0
2018-Jun-30 07:28N 38°60' E 118°27'0 0.0
2018-Jun-30 06:58N 38°60' E 118°27'0 0.0
2018-Jun-30 06:19N 38°60' E 118°27'0 0.0
2018-Jun-30 04:19N 38°60' E 118°27'0 0.0
2018-Jun-30 00:34N 38°60' E 118°27'0 0.0
2018-Jun-30 00:16N 38°60' E 118°27'0 0.0
2018-Jun-29 23:58N 38°60' E 118°27'0 0.0
2018-Jun-29 23:31N 38°60' E 118°27'0 0.0
2018-Jun-29 22:36N 38°60' E 118°27'0 0.0
2018-Jun-29 22:22N 38°60' E 118°27'0 0.0
2018-Jun-29 21:57N 38°60' E 118°27'0 0.0
2018-Jun-29 20:21N 38°60' E 118°27'0 0.0
2018-Jun-29 01:00N 38°60' E 118°27'0 0.0
2018-Jun-29 00:27N 38°60' E 118°27'0 0.0
2018-Jun-29 00:00N 38°60' E 118°27'0 0.0
2018-Jun-28 21:21N 38°60' E 118°27'0 0.0
2018-Jun-28 21:01N 38°60' E 118°27'0 0.0
2018-Jun-28 20:30N 38°60' E 118°27'0 0.0
2018-Jun-28 20:00N 38°60' E 118°27'0 0.0
2018-Jun-28 19:28N 38°60' E 118°27'0 0.0
2018-Jun-28 19:00N 38°60' E 118°27'0 0.0
2018-Jun-28 18:30N 38°60' E 118°27'0 0.0
2018-Jun-28 10:46N 38°60' E 118°27'0 0.0
2018-Jun-28 10:21N 38°60' E 118°27'0 0.0
2018-Jun-28 09:59N 38°60' E 118°27'0 0.0
2018-Jun-28 09:27N 38°60' E 118°27'4 1.4
2018-Jun-28 06:52N 38°56' E 118°28'11 1.1
2018-Jun-27 20:16N 38°52' E 118°42'0 0.3
2018-Jun-27 19:49N 38°52' E 118°42'0 0.4
2018-Jun-27 19:28N 38°52' E 118°42'0 0.3
2018-Jun-27 18:55N 38°52' E 118°41'0 0.0
2018-Jun-27 06:50N 38°52' E 118°42'4 4.8
2018-Jun-27 05:55N 38°50' E 118°47'3 8.4
2018-Jun-27 05:30N 38°49' E 118°51'6 9.5
2018-Jun-27 04:52N 38°47' E 118°58'5410.7
2018-Jun-26 23:48N 38°42' E 120°08'4 8.9
2018-Jun-26 23:20N 38°42' E 120°13'6 9.6
2018-Jun-26 22:41N 38°41' E 120°21'5 9.7
2018-Jun-26 22:10N 38°40' E 120°27'30 9.3
2018-Jun-26 18:59N 38°33' E 121°04'  
Track history (hours):
 
Tides and Currents Weather Stations Pressure Air Temp Water Temp Dewpoint Dewpoint Depression Visibility Wind Speed Wind Dir Waves Ship Positions

Hanjin Malta

Last reported at 2018-Jul-05 13:29 UTC. Time now 2018-Jul-23 09:53 UTC.
Position N 38°39' E 118°24'.
Warning: this ship's position is 17 days out of date.

Length 290 m; draft 7 m.

Type: Cargo ship. MMSI: 538005050.

Date/timePositionNaut miles runAvg speedWind from/ knotsBaromVisibWave heightAir tempDewpointWater temp
2018-Jul-05 13:29N 38°39' E 118°24'0 0.1
2018-Jul-05 12:53N 38°39' E 118°24'0 0.0
2018-Jul-05 12:20N 38°39' E 118°24'0 0.0
2018-Jul-05 11:59N 38°39' E 118°24'0 0.0
2018-Jul-04 09:49N 38°39' E 118°24'0 0.0
2018-Jul-04 09:19N 38°39' E 118°24'0 0.0
2018-Jul-04 08:46N 38°39' E 118°24'0 0.0
2018-Jul-04 07:34N 38°39' E 118°24'  
2018-Jun-30 10:28N 38°60' E 118°27'0 0.0
2018-Jun-30 09:58N 38°60' E 118°27'0 0.0
2018-Jun-30 08:49N 38°60' E 118°27'0 0.0
2018-Jun-30 08:16N 38°60' E 118°27'0 0.0
2018-Jun-30 07:58N 38°60' E 118°27'0 0.0
2018-Jun-30 07:28N 38°60' E 118°27'0 0.0
2018-Jun-30 06:58N 38°60' E 118°27'0 0.0
2018-Jun-30 06:19N 38°60' E 118°27'0 0.0
2018-Jun-30 04:19N 38°60' E 118°27'0 0.0
2018-Jun-30 00:34N 38°60' E 118°27'0 0.0
2018-Jun-30 00:16N 38°60' E 118°27'0 0.0
2018-Jun-29 23:58N 38°60' E 118°27'0 0.0
2018-Jun-29 23:31N 38°60' E 118°27'0 0.0
2018-Jun-29 22:36N 38°60' E 118°27'0 0.0
2018-Jun-29 22:22N 38°60' E 118°27'0 0.0
2018-Jun-29 21:57N 38°60' E 118°27'0 0.0
2018-Jun-29 20:21N 38°60' E 118°27'0 0.0
2018-Jun-29 01:00N 38°60' E 118°27'0 0.0
2018-Jun-29 00:27N 38°60' E 118°27'0 0.0
2018-Jun-29 00:00N 38°60' E 118°27'0 0.0
2018-Jun-28 21:21N 38°60' E 118°27'0 0.0
2018-Jun-28 21:01N 38°60' E 118°27'0 0.0
2018-Jun-28 20:30N 38°60' E 118°27'0 0.0
2018-Jun-28 20:00N 38°60' E 118°27'0 0.0
2018-Jun-28 19:28N 38°60' E 118°27'0 0.0
2018-Jun-28 19:00N 38°60' E 118°27'0 0.0
2018-Jun-28 18:30N 38°60' E 118°27'0 0.0
2018-Jun-28 10:46N 38°60' E 118°27'0 0.0
2018-Jun-28 10:21N 38°60' E 118°27'0 0.0
2018-Jun-28 09:59N 38°60' E 118°27'0 0.0
2018-Jun-28 09:27N 38°60' E 118°27'4 1.4
2018-Jun-28 06:52N 38°56' E 118°28'11 1.1
2018-Jun-27 20:16N 38°52' E 118°42'0 0.3
2018-Jun-27 19:49N 38°52' E 118°42'0 0.4
2018-Jun-27 19:28N 38°52' E 118°42'0 0.3
2018-Jun-27 18:55N 38°52' E 118°41'0 0.0
2018-Jun-27 06:50N 38°52' E 118°42'4 4.8
2018-Jun-27 05:55N 38°50' E 118°47'3 8.4
2018-Jun-27 05:30N 38°49' E 118°51'6 9.5
2018-Jun-27 04:52N 38°47' E 118°58'5410.7
2018-Jun-26 23:48N 38°42' E 120°08'4 8.9
2018-Jun-26 23:20N 38°42' E 120°13'6 9.6
2018-Jun-26 22:41N 38°41' E 120°21'5 9.7
2018-Jun-26 22:10N 38°40' E 120°27'30 9.3
2018-Jun-26 18:59N 38°33' E 121°04'  

Dump ship's entire track history